sensor_id;sensor_type;location;lat;lon;timestamp;temperature;humidity
435;DHT22;204;48.942;9.256;2024-02-23T00:02:04;8.20;99.90
435;DHT22;204;48.942;9.256;2024-02-23T00:04:30;8.20;1.00
435;DHT22;204;48.942;9.256;2024-02-23T00:06:56;8.20;99.90
435;DHT22;204;48.942;9.256;2024-02-23T00:09:21;8.20;1.00
435;DHT22;204;48.942;9.256;2024-02-23T00:11:47;8.20;1.00
435;DHT22;204;48.942;9.256;2024-02-23T00:14:15;8.20;1.00
435;DHT22;204;48.942;9.256;2024-02-23T00:16:43;8.20;99.90
435;DHT22;204;48.942;9.256;2024-02-23T00:19:09;8.30;99.90
435;DHT22;204;48.942;9.256;2024-02-23T00:21:38;8.30;99.90
435;DHT22;204;48.942;9.256;2024-02-23T00:24:05;8.20;99.90
435;DHT22;204;48.942;9.256;2024-02-23T00:26:31;8.20;99.90
435;DHT22;204;48.942;9.256;2024-02-23T00:28:57;8.20;99.90
435;DHT22;204;48.942;9.256;2024-02-23T00:31:22;8.20;99.90
435;DHT22;204;48.942;9.256;2024-02-23T00:33:48;8.10;99.90
435;DHT22;204;48.942;9.256;2024-02-23T00:36:14;8.00;1.00
435;DHT22;204;48.942;9.256;2024-02-23T00:38:39;8.10;1.00
435;DHT22;204;48.942;9.256;2024-02-23T00:41:05;8.00;99.90
435;DHT22;204;48.942;9.256;2024-02-23T00:43:38;8.00;99.90
435;DHT22;204;48.942;9.256;2024-02-23T00:46:04;8.00;99.90
435;DHT22;204;48.942;9.256;2024-02-23T00:48:30;8.00;99.90
435;DHT22;204;48.942;9.256;2024-02-23T00:50:55;7.90;99.90
435;DHT22;204;48.942;9.256;2024-02-23T00:53:21;7.90;99.90
435;DHT22;204;48.942;9.256;2024-02-23T00:55:47;7.90;99.90
435;DHT22;204;48.942;9.256;2024-02-23T00:58:12;7.90;99.90
435;DHT22;204;48.942;9.256;2024-02-23T01:00:38;7.90;99.90
435;DHT22;204;48.942;9.256;2024-02-23T01:03:04;7.90;99.90
435;DHT22;204;48.942;9.256;2024-02-23T01:05:30;7.90;99.90
435;DHT22;204;48.942;9.256;2024-02-23T01:07:56;7.90;99.90
435;DHT22;204;48.942;9.256;2024-02-23T01:10:21;7.90;99.90
435;DHT22;204;48.942;9.256;2024-02-23T01:12:47;7.90;99.90
435;DHT22;204;48.942;9.256;2024-02-23T01:15:13;7.90;99.90
435;DHT22;204;48.942;9.256;2024-02-23T01:17:38;7.80;99.90
435;DHT22;204;48.942;9.256;2024-02-23T01:20:04;7.80;99.90
435;DHT22;204;48.942;9.256;2024-02-23T01:22:30;7.80;99.90
435;DHT22;204;48.942;9.256;2024-02-23T01:24:56;7.70;99.90
435;DHT22;204;48.942;9.256;2024-02-23T01:27:21;7.70;99.90
435;DHT22;204;48.942;9.256;2024-02-23T01:29:47;7.70;99.90
435;DHT22;204;48.942;9.256;2024-02-23T01:32:13;7.70;99.90
435;DHT22;204;48.942;9.256;2024-02-23T01:34:38;7.60;99.90
435;DHT22;204;48.942;9.256;2024-02-23T01:37:04;7.60;99.90
435;DHT22;204;48.942;9.256;2024-02-23T01:39:29;7.60;99.90
435;DHT22;204;48.942;9.256;2024-02-23T01:41:55;7.60;99.90
435;DHT22;204;48.942;9.256;2024-02-23T01:44:21;7.60;99.90
435;DHT22;204;48.942;9.256;2024-02-23T01:46:47;7.60;99.90
435;DHT22;204;48.942;9.256;2024-02-23T01:49:13;7.60;99.90
435;DHT22;204;48.942;9.256;2024-02-23T01:51:39;7.70;99.90
435;DHT22;204;48.942;9.256;2024-02-23T01:54:05;7.60;99.90
435;DHT22;204;48.942;9.256;2024-02-23T01:56:32;7.60;99.90
435;DHT22;204;48.942;9.256;2024-02-23T01:58:59;7.60;99.90
435;DHT22;204;48.942;9.256;2024-02-23T02:01:29;7.70;99.90
435;DHT22;204;48.942;9.256;2024-02-23T02:03:55;7.70;99.90
435;DHT22;204;48.942;9.256;2024-02-23T02:06:22;7.70;99.90
435;DHT22;204;48.942;9.256;2024-02-23T02:08:47;7.80;99.90
435;DHT22;204;48.942;9.256;2024-02-23T02:11:13;7.80;99.90
435;DHT22;204;48.942;9.256;2024-02-23T02:13:39;7.90;99.90
435;DHT22;204;48.942;9.256;2024-02-23T02:16:04;7.90;99.90
435;DHT22;204;48.942;9.256;2024-02-23T02:18:30;8.00;99.90
435;DHT22;204;48.942;9.256;2024-02-23T02:20:56;8.00;99.90
435;DHT22;204;48.942;9.256;2024-02-23T02:23:23;8.00;99.90
435;DHT22;204;48.942;9.256;2024-02-23T02:25:58;8.00;99.90
435;DHT22;204;48.942;9.256;2024-02-23T02:28:25;8.00;99.90
435;DHT22;204;48.942;9.256;2024-02-23T02:30:51;8.00;99.90
435;DHT22;204;48.942;9.256;2024-02-23T02:33:21;7.90;99.90
435;DHT22;204;48.942;9.256;2024-02-23T02:35:47;7.80;99.90
435;DHT22;204;48.942;9.256;2024-02-23T02:38:13;7.70;99.90
435;DHT22;204;48.942;9.256;2024-02-23T02:40:39;7.70;99.90
435;DHT22;204;48.942;9.256;2024-02-23T02:43:05;7.60;99.90
435;DHT22;204;48.942;9.256;2024-02-23T02:45:31;7.60;99.90
435;DHT22;204;48.942;9.256;2024-02-23T02:47:56;7.60;99.90
435;DHT22;204;48.942;9.256;2024-02-23T02:50:22;7.50;1.00
435;DHT22;204;48.942;9.256;2024-02-23T02:52:48;7.50;1.00
435;DHT22;204;48.942;9.256;2024-02-23T02:55:13;7.40;1.00
435;DHT22;204;48.942;9.256;2024-02-23T02:57:39;7.40;1.00
435;DHT22;204;48.942;9.256;2024-02-23T03:00:05;7.40;1.00
435;DHT22;204;48.942;9.256;2024-02-23T03:02:35;7.40;1.00
435;DHT22;204;48.942;9.256;2024-02-23T03:05:00;7.30;1.00
435;DHT22;204;48.942;9.256;2024-02-23T03:07:26;7.30;1.00
435;DHT22;204;48.942;9.256;2024-02-23T03:09:51;7.30;1.00
435;DHT22;204;48.942;9.256;2024-02-23T03:12:18;7.30;1.00
435;DHT22;204;48.942;9.256;2024-02-23T03:14:44;7.30;1.00
435;DHT22;204;48.942;9.256;2024-02-23T03:17:09;7.20;1.00
435;DHT22;204;48.942;9.256;2024-02-23T03:19:36;7.30;1.00
435;DHT22;204;48.942;9.256;2024-02-23T03:22:02;7.20;1.00
435;DHT22;204;48.942;9.256;2024-02-23T03:24:27;7.20;1.00
435;DHT22;204;48.942;9.256;2024-02-23T03:26:53;7.20;1.00
435;DHT22;204;48.942;9.256;2024-02-23T03:29:19;7.20;1.00
435;DHT22;204;48.942;9.256;2024-02-23T03:31:44;7.30;1.00
435;DHT22;204;48.942;9.256;2024-02-23T03:34:10;7.30;1.00
435;DHT22;204;48.942;9.256;2024-02-23T03:36:36;7.30;1.00
435;DHT22;204;48.942;9.256;2024-02-23T03:39:02;7.40;1.00
435;DHT22;204;48.942;9.256;2024-02-23T03:41:28;7.40;1.00
435;DHT22;204;48.942;9.256;2024-02-23T03:43:53;7.50;1.00
435;DHT22;204;48.942;9.256;2024-02-23T03:46:19;7.50;99.90
435;DHT22;204;48.942;9.256;2024-02-23T03:48:45;7.50;99.90
435;DHT22;204;48.942;9.256;2024-02-23T03:51:11;7.50;99.90
435;DHT22;204;48.942;9.256;2024-02-23T03:53:36;7.50;99.90
435;DHT22;204;48.942;9.256;2024-02-23T03:56:02;7.50;99.90
435;DHT22;204;48.942;9.256;2024-02-23T03:58:28;7.50;99.90
435;DHT22;204;48.942;9.256;2024-02-23T04:00:54;7.50;99.90
435;DHT22;204;48.942;9.256;2024-02-23T04:03:19;7.60;99.90
435;DHT22;204;48.942;9.256;2024-02-23T04:05:45;7.60;99.90
435;DHT22;204;48.942;9.256;2024-02-23T04:08:11;7.70;99.90
435;DHT22;204;48.942;9.256;2024-02-23T04:10:36;7.70;99.90
435;DHT22;204;48.942;9.256;2024-02-23T04:13:02;7.70;99.90
435;DHT22;204;48.942;9.256;2024-02-23T04:15:27;7.60;99.90
435;DHT22;204;48.942;9.256;2024-02-23T04:17:53;7.60;99.90
435;DHT22;204;48.942;9.256;2024-02-23T04:20:18;7.60;99.90
435;DHT22;204;48.942;9.256;2024-02-23T04:22:44;7.60;99.90
435;DHT22;204;48.942;9.256;2024-02-23T04:25:10;7.60;99.90
435;DHT22;204;48.942;9.256;2024-02-23T04:27:35;7.60;99.90
435;DHT22;204;48.942;9.256;2024-02-23T04:30:02;7.60;99.90
435;DHT22;204;48.942;9.256;2024-02-23T04:32:27;7.50;99.90
435;DHT22;204;48.942;9.256;2024-02-23T04:34:53;7.50;99.90
435;DHT22;204;48.942;9.256;2024-02-23T04:37:19;7.50;99.90
435;DHT22;204;48.942;9.256;2024-02-23T04:39:44;7.40;99.90
435;DHT22;204;48.942;9.256;2024-02-23T04:42:10;7.40;99.90
435;DHT22;204;48.942;9.256;2024-02-23T04:44:36;7.40;99.90
435;DHT22;204;48.942;9.256;2024-02-23T04:47:02;7.40;99.90
435;DHT22;204;48.942;9.256;2024-02-23T04:49:28;7.30;99.90
435;DHT22;204;48.942;9.256;2024-02-23T04:51:54;7.30;99.90
435;DHT22;204;48.942;9.256;2024-02-23T04:54:20;7.30;99.90
435;DHT22;204;48.942;9.256;2024-02-23T04:56:46;7.30;99.90
435;DHT22;204;48.942;9.256;2024-02-23T04:59:13;7.30;99.90
435;DHT22;204;48.942;9.256;2024-02-23T05:01:38;7.30;99.90
435;DHT22;204;48.942;9.256;2024-02-23T05:04:04;7.30;99.90
435;DHT22;204;48.942;9.256;2024-02-23T05:06:30;7.30;99.90
435;DHT22;204;48.942;9.256;2024-02-23T05:08:55;7.30;99.90
435;DHT22;204;48.942;9.256;2024-02-23T05:11:21;7.30;99.90
435;DHT22;204;48.942;9.256;2024-02-23T05:13:47;7.30;99.90
435;DHT22;204;48.942;9.256;2024-02-23T05:16:16;7.20;99.90
435;DHT22;204;48.942;9.256;2024-02-23T05:18:41;7.20;99.90
435;DHT22;204;48.942;9.256;2024-02-23T05:21:07;7.10;99.90
435;DHT22;204;48.942;9.256;2024-02-23T05:23:33;7.10;99.90
435;DHT22;204;48.942;9.256;2024-02-23T05:25:58;7.00;99.90
435;DHT22;204;48.942;9.256;2024-02-23T05:28:24;7.00;99.90
435;DHT22;204;48.942;9.256;2024-02-23T05:30:50;7.00;99.90
435;DHT22;204;48.942;9.256;2024-02-23T05:33:16;7.00;99.90
435;DHT22;204;48.942;9.256;2024-02-23T05:35:41;6.90;99.90
435;DHT22;204;48.942;9.256;2024-02-23T05:38:07;7.00;99.90
435;DHT22;204;48.942;9.256;2024-02-23T05:40:32;7.00;99.90
435;DHT22;204;48.942;9.256;2024-02-23T05:42:58;7.00;99.90
435;DHT22;204;48.942;9.256;2024-02-23T05:45:24;7.10;99.90
435;DHT22;204;48.942;9.256;2024-02-23T05:47:50;7.10;99.90
435;DHT22;204;48.942;9.256;2024-02-23T05:50:15;7.10;99.90
435;DHT22;204;48.942;9.256;2024-02-23T05:52:41;7.10;99.90
435;DHT22;204;48.942;9.256;2024-02-23T05:55:07;7.20;99.90
435;DHT22;204;48.942;9.256;2024-02-23T05:57:33;7.20;99.90
435;DHT22;204;48.942;9.256;2024-02-23T05:59:59;7.20;99.90
435;DHT22;204;48.942;9.256;2024-02-23T06:02:25;7.30;99.90
435;DHT22;204;48.942;9.256;2024-02-23T06:04:50;7.30;99.90
435;DHT22;204;48.942;9.256;2024-02-23T06:07:16;7.30;99.90
435;DHT22;204;48.942;9.256;2024-02-23T06:09:42;7.40;99.90
435;DHT22;204;48.942;9.256;2024-02-23T06:12:08;7.40;99.90
435;DHT22;204;48.942;9.256;2024-02-23T06:14:34;7.40;99.90
435;DHT22;204;48.942;9.256;2024-02-23T06:17:00;7.40;99.90
435;DHT22;204;48.942;9.256;2024-02-23T06:19:26;7.30;99.90
435;DHT22;204;48.942;9.256;2024-02-23T06:21:51;7.30;99.90
435;DHT22;204;48.942;9.256;2024-02-23T06:24:17;7.30;99.90
435;DHT22;204;48.942;9.256;2024-02-23T06:26:43;7.40;99.90
435;DHT22;204;48.942;9.256;2024-02-23T06:29:08;7.40;99.90
435;DHT22;204;48.942;9.256;2024-02-23T06:31:37;7.40;99.90
435;DHT22;204;48.942;9.256;2024-02-23T06:34:03;7.30;99.90
435;DHT22;204;48.942;9.256;2024-02-23T06:36:29;7.30;99.90
435;DHT22;204;48.942;9.256;2024-02-23T06:38:54;7.30;99.90
435;DHT22;204;48.942;9.256;2024-02-23T06:41:20;7.30;99.90
435;DHT22;204;48.942;9.256;2024-02-23T06:43:46;7.30;99.90
435;DHT22;204;48.942;9.256;2024-02-23T06:46:11;7.20;99.90
435;DHT22;204;48.942;9.256;2024-02-23T06:48:38;7.20;99.90
435;DHT22;204;48.942;9.256;2024-02-23T06:51:06;7.10;99.90
435;DHT22;204;48.942;9.256;2024-02-23T06:53:35;7.10;99.90
435;DHT22;204;48.942;9.256;2024-02-23T06:56:01;7.10;99.90
435;DHT22;204;48.942;9.256;2024-02-23T06:58:27;7.00;99.90
435;DHT22;204;48.942;9.256;2024-02-23T07:00:53;7.00;99.90
435;DHT22;204;48.942;9.256;2024-02-23T07:03:19;7.00;99.90
435;DHT22;204;48.942;9.256;2024-02-23T07:05:44;7.10;99.90
435;DHT22;204;48.942;9.256;2024-02-23T07:08:11;7.10;99.90
435;DHT22;204;48.942;9.256;2024-02-23T07:10:37;7.10;99.90
435;DHT22;204;48.942;9.256;2024-02-23T07:13:03;7.10;99.90
435;DHT22;204;48.942;9.256;2024-02-23T07:15:28;7.10;99.90
435;DHT22;204;48.942;9.256;2024-02-23T07:17:55;7.10;99.90
435;DHT22;204;48.942;9.256;2024-02-23T07:20:22;7.10;99.90
435;DHT22;204;48.942;9.256;2024-02-23T07:22:47;7.10;99.90
435;DHT22;204;48.942;9.256;2024-02-23T07:25:17;7.20;99.90
435;DHT22;204;48.942;9.256;2024-02-23T07:27:43;7.20;99.90
435;DHT22;204;48.942;9.256;2024-02-23T07:30:10;7.20;99.90
435;DHT22;204;48.942;9.256;2024-02-23T07:32:35;7.30;99.90
435;DHT22;204;48.942;9.256;2024-02-23T07:35:01;7.30;99.90
435;DHT22;204;48.942;9.256;2024-02-23T07:37:29;7.40;99.90
435;DHT22;204;48.942;9.256;2024-02-23T07:39:54;7.40;99.90
435;DHT22;204;48.942;9.256;2024-02-23T07:42:20;7.50;99.90
435;DHT22;204;48.942;9.256;2024-02-23T07:44:46;7.50;99.90
435;DHT22;204;48.942;9.256;2024-02-23T07:47:12;7.60;99.90
435;DHT22;204;48.942;9.256;2024-02-23T07:49:37;7.70;99.90
435;DHT22;204;48.942;9.256;2024-02-23T07:52:03;7.80;99.90
435;DHT22;204;48.942;9.256;2024-02-23T07:54:29;7.80;99.90
435;DHT22;204;48.942;9.256;2024-02-23T07:56:55;7.90;99.90
435;DHT22;204;48.942;9.256;2024-02-23T07:59:20;8.00;99.90
435;DHT22;204;48.942;9.256;2024-02-23T08:01:46;8.10;99.90
435;DHT22;204;48.942;9.256;2024-02-23T08:04:12;8.10;99.90
435;DHT22;204;48.942;9.256;2024-02-23T08:06:39;8.10;99.90
435;DHT22;204;48.942;9.256;2024-02-23T08:09:04;8.20;99.90
435;DHT22;204;48.942;9.256;2024-02-23T08:11:30;8.10;99.90
435;DHT22;204;48.942;9.256;2024-02-23T08:13:56;8.10;99.90
435;DHT22;204;48.942;9.256;2024-02-23T08:16:21;8.10;99.90
435;DHT22;204;48.942;9.256;2024-02-23T08:18:47;8.00;99.90
435;DHT22;204;48.942;9.256;2024-02-23T08:21:12;8.00;99.90
435;DHT22;204;48.942;9.256;2024-02-23T08:23:38;8.00;99.90
435;DHT22;204;48.942;9.256;2024-02-23T08:26:04;8.00;99.90
435;DHT22;204;48.942;9.256;2024-02-23T08:28:29;8.00;99.90
435;DHT22;204;48.942;9.256;2024-02-23T08:30:55;8.00;99.90
435;DHT22;204;48.942;9.256;2024-02-23T08:33:21;8.00;99.90
435;DHT22;204;48.942;9.256;2024-02-23T08:35:46;8.00;99.90
435;DHT22;204;48.942;9.256;2024-02-23T08:38:14;8.00;99.90
435;DHT22;204;48.942;9.256;2024-02-23T08:40:40;8.00;99.90
435;DHT22;204;48.942;9.256;2024-02-23T08:43:05;8.10;99.90
435;DHT22;204;48.942;9.256;2024-02-23T08:45:31;8.10;99.90
435;DHT22;204;48.942;9.256;2024-02-23T08:47:56;8.10;99.90
435;DHT22;204;48.942;9.256;2024-02-23T08:50:22;8.00;99.90
435;DHT22;204;48.942;9.256;2024-02-23T08:52:47;8.00;99.90
435;DHT22;204;48.942;9.256;2024-02-23T08:55:13;8.00;99.90
435;DHT22;204;48.942;9.256;2024-02-23T08:57:39;8.00;99.90
435;DHT22;204;48.942;9.256;2024-02-23T09:00:05;8.00;99.90
435;DHT22;204;48.942;9.256;2024-02-23T09:02:31;8.10;99.90
435;DHT22;204;48.942;9.256;2024-02-23T09:04:58;8.10;99.90
435;DHT22;204;48.942;9.256;2024-02-23T09:07:23;8.20;99.90
435;DHT22;204;48.942;9.256;2024-02-23T09:09:49;8.30;99.90
435;DHT22;204;48.942;9.256;2024-02-23T09:12:15;8.40;99.90
435;DHT22;204;48.942;9.256;2024-02-23T09:14:42;8.50;99.90
435;DHT22;204;48.942;9.256;2024-02-23T09:17:09;8.60;99.90
435;DHT22;204;48.942;9.256;2024-02-23T09:19:36;8.80;99.90
435;DHT22;204;48.942;9.256;2024-02-23T09:22:02;8.90;99.90
435;DHT22;204;48.942;9.256;2024-02-23T09:24:28;9.00;99.90
435;DHT22;204;48.942;9.256;2024-02-23T09:26:53;9.10;99.90
435;DHT22;204;48.942;9.256;2024-02-23T09:29:19;9.10;99.90
435;DHT22;204;48.942;9.256;2024-02-23T09:31:44;9.20;99.90
435;DHT22;204;48.942;9.256;2024-02-23T09:34:10;9.20;99.90
435;DHT22;204;48.942;9.256;2024-02-23T09:36:36;9.20;99.90
435;DHT22;204;48.942;9.256;2024-02-23T09:39:02;9.30;99.90
435;DHT22;204;48.942;9.256;2024-02-23T09:41:29;9.40;99.90
435;DHT22;204;48.942;9.256;2024-02-23T09:43:58;9.50;99.90
435;DHT22;204;48.942;9.256;2024-02-23T09:46:25;9.50;99.90
435;DHT22;204;48.942;9.256;2024-02-23T09:48:51;9.50;99.90
435;DHT22;204;48.942;9.256;2024-02-23T09:51:17;9.50;99.90
435;DHT22;204;48.942;9.256;2024-02-23T09:53:43;9.50;99.90
435;DHT22;204;48.942;9.256;2024-02-23T09:56:10;9.60;99.90
435;DHT22;204;48.942;9.256;2024-02-23T09:58:39;9.70;99.90
435;DHT22;204;48.942;9.256;2024-02-23T10:01:06;9.80;99.90
435;DHT22;204;48.942;9.256;2024-02-23T10:03:31;10.00;99.90
435;DHT22;204;48.942;9.256;2024-02-23T10:05:57;10.10;99.90
435;DHT22;204;48.942;9.256;2024-02-23T10:08:23;10.10;99.90
435;DHT22;204;48.942;9.256;2024-02-23T10:10:49;10.20;99.90
435;DHT22;204;48.942;9.256;2024-02-23T10:13:19;10.20;99.90
435;DHT22;204;48.942;9.256;2024-02-23T10:15:49;10.30;99.90
435;DHT22;204;48.942;9.256;2024-02-23T10:18:16;10.40;99.90
435;DHT22;204;48.942;9.256;2024-02-23T10:20:42;10.50;99.90
435;DHT22;204;48.942;9.256;2024-02-23T10:23:08;10.70;99.90
435;DHT22;204;48.942;9.256;2024-02-23T10:25:35;10.90;99.90
435;DHT22;204;48.942;9.256;2024-02-23T10:28:05;11.10;99.90
435;DHT22;204;48.942;9.256;2024-02-23T10:30:31;11.20;99.90
435;DHT22;204;48.942;9.256;2024-02-23T10:32:57;11.30;99.90
435;DHT22;204;48.942;9.256;2024-02-23T10:35:23;11.40;99.90
435;DHT22;204;48.942;9.256;2024-02-23T10:37:50;11.40;99.90
435;DHT22;204;48.942;9.256;2024-02-23T10:40:18;11.60;99.90
435;DHT22;204;48.942;9.256;2024-02-23T10:42:45;11.70;99.90
435;DHT22;204;48.942;9.256;2024-02-23T10:45:17;11.80;99.90
435;DHT22;204;48.942;9.256;2024-02-23T10:47:43;11.80;99.90
435;DHT22;204;48.942;9.256;2024-02-23T10:50:09;11.90;99.90
435;DHT22;204;48.942;9.256;2024-02-23T10:52:38;11.90;99.90
435;DHT22;204;48.942;9.256;2024-02-23T10:55:06;12.00;99.90
435;DHT22;204;48.942;9.256;2024-02-23T10:57:35;11.90;99.90
435;DHT22;204;48.942;9.256;2024-02-23T11:00:01;12.00;99.90
435;DHT22;204;48.942;9.256;2024-02-23T11:02:31;12.00;99.90
435;DHT22;204;48.942;9.256;2024-02-23T11:04:58;12.10;99.90
435;DHT22;204;48.942;9.256;2024-02-23T11:07:24;12.10;99.90
435;DHT22;204;48.942;9.256;2024-02-23T11:10:00;12.10;99.90
435;DHT22;204;48.942;9.256;2024-02-23T11:12:29;12.20;99.90
435;DHT22;204;48.942;9.256;2024-02-23T11:14:59;12.20;99.90
435;DHT22;204;48.942;9.256;2024-02-23T11:17:30;12.10;99.90
435;DHT22;204;48.942;9.256;2024-02-23T11:19:56;12.20;99.90
435;DHT22;204;48.942;9.256;2024-02-23T11:22:33;12.30;99.90
435;DHT22;204;48.942;9.256;2024-02-23T11:25:07;12.40;99.90
435;DHT22;204;48.942;9.256;2024-02-23T11:27:37;12.60;99.90
435;DHT22;204;48.942;9.256;2024-02-23T11:30:04;12.50;99.90
435;DHT22;204;48.942;9.256;2024-02-23T11:32:38;12.50;99.90
435;DHT22;204;48.942;9.256;2024-02-23T11:35:08;12.50;99.90
435;DHT22;204;48.942;9.256;2024-02-23T11:37:55;12.50;99.90
435;DHT22;204;48.942;9.256;2024-02-23T11:40:28;12.60;99.90
435;DHT22;204;48.942;9.256;2024-02-23T11:42:55;12.60;99.90
435;DHT22;204;48.942;9.256;2024-02-23T11:45:21;12.60;99.90
435;DHT22;204;48.942;9.256;2024-02-23T11:47:47;12.70;99.90
435;DHT22;204;48.942;9.256;2024-02-23T11:50:13;12.80;99.90
435;DHT22;204;48.942;9.256;2024-02-23T11:52:41;12.80;99.90
435;DHT22;204;48.942;9.256;2024-02-23T11:55:07;12.90;99.90
435;DHT22;204;48.942;9.256;2024-02-23T11:57:36;12.90;99.90
435;DHT22;204;48.942;9.256;2024-02-23T12:00:03;12.90;99.90
435;DHT22;204;48.942;9.256;2024-02-23T12:02:29;13.00;99.90
435;DHT22;204;48.942;9.256;2024-02-23T12:04:54;13.00;99.90
435;DHT22;204;48.942;9.256;2024-02-23T12:07:20;13.00;99.90
435;DHT22;204;48.942;9.256;2024-02-23T12:09:47;13.10;99.90
435;DHT22;204;48.942;9.256;2024-02-23T12:12:13;13.20;99.90
435;DHT22;204;48.942;9.256;2024-02-23T12:14:39;13.30;99.90
435;DHT22;204;48.942;9.256;2024-02-23T12:17:05;13.40;99.90
435;DHT22;204;48.942;9.256;2024-02-23T12:19:40;13.60;99.90
435;DHT22;204;48.942;9.256;2024-02-23T12:22:06;13.60;99.90
435;DHT22;204;48.942;9.256;2024-02-23T12:24:31;13.70;99.90
435;DHT22;204;48.942;9.256;2024-02-23T12:26:57;13.70;99.90
435;DHT22;204;48.942;9.256;2024-02-23T12:29:23;13.70;99.90
435;DHT22;204;48.942;9.256;2024-02-23T12:31:49;13.70;99.90
435;DHT22;204;48.942;9.256;2024-02-23T12:34:15;13.70;99.90
435;DHT22;204;48.942;9.256;2024-02-23T12:36:41;13.60;99.90
435;DHT22;204;48.942;9.256;2024-02-23T12:39:07;13.50;99.90
435;DHT22;204;48.942;9.256;2024-02-23T12:41:33;13.30;99.90
435;DHT22;204;48.942;9.256;2024-02-23T12:43:58;13.10;99.90
435;DHT22;204;48.942;9.256;2024-02-23T12:46:24;13.20;99.90
435;DHT22;204;48.942;9.256;2024-02-23T12:48:50;13.10;99.90
435;DHT22;204;48.942;9.256;2024-02-23T12:51:16;13.10;99.90
435;DHT22;204;48.942;9.256;2024-02-23T12:53:42;13.00;99.90
435;DHT22;204;48.942;9.256;2024-02-23T12:56:10;13.10;99.90
435;DHT22;204;48.942;9.256;2024-02-23T12:58:37;12.90;99.90
435;DHT22;204;48.942;9.256;2024-02-23T13:01:04;13.00;99.90
435;DHT22;204;48.942;9.256;2024-02-23T13:03:30;12.90;99.90
435;DHT22;204;48.942;9.256;2024-02-23T13:05:56;13.00;99.90
435;DHT22;204;48.942;9.256;2024-02-23T13:08:22;12.90;99.90
435;DHT22;204;48.942;9.256;2024-02-23T13:10:49;12.80;99.90
435;DHT22;204;48.942;9.256;2024-02-23T13:13:14;12.90;99.90
435;DHT22;204;48.942;9.256;2024-02-23T13:15:41;12.90;99.90
435;DHT22;204;48.942;9.256;2024-02-23T13:18:07;13.00;99.90
435;DHT22;204;48.942;9.256;2024-02-23T13:20:33;13.00;99.90
435;DHT22;204;48.942;9.256;2024-02-23T13:22:59;12.90;99.90
435;DHT22;204;48.942;9.256;2024-02-23T13:25:24;12.90;99.90
435;DHT22;204;48.942;9.256;2024-02-23T13:27:50;12.90;99.90
435;DHT22;204;48.942;9.256;2024-02-23T13:30:15;12.90;99.90
435;DHT22;204;48.942;9.256;2024-02-23T13:32:41;13.00;99.90
435;DHT22;204;48.942;9.256;2024-02-23T13:35:07;13.20;99.90
435;DHT22;204;48.942;9.256;2024-02-23T13:37:34;13.30;99.90
435;DHT22;204;48.942;9.256;2024-02-23T13:40:00;13.30;99.90
435;DHT22;204;48.942;9.256;2024-02-23T13:42:25;13.40;99.90
435;DHT22;204;48.942;9.256;2024-02-23T13:44:51;13.40;99.90
435;DHT22;204;48.942;9.256;2024-02-23T13:47:17;13.40;99.90
435;DHT22;204;48.942;9.256;2024-02-23T13:49:42;13.40;99.90
435;DHT22;204;48.942;9.256;2024-02-23T13:52:08;13.40;99.90
435;DHT22;204;48.942;9.256;2024-02-23T13:54:34;13.50;99.90
435;DHT22;204;48.942;9.256;2024-02-23T13:56:59;13.50;99.90
435;DHT22;204;48.942;9.256;2024-02-23T13:59:25;13.50;99.90
435;DHT22;204;48.942;9.256;2024-02-23T14:01:51;13.50;99.90
435;DHT22;204;48.942;9.256;2024-02-23T14:04:17;13.50;99.90
435;DHT22;204;48.942;9.256;2024-02-23T14:06:42;13.50;99.90
435;DHT22;204;48.942;9.256;2024-02-23T14:09:09;13.40;99.90
435;DHT22;204;48.942;9.256;2024-02-23T14:11:35;13.30;99.90
435;DHT22;204;48.942;9.256;2024-02-23T14:14:00;13.30;99.90
435;DHT22;204;48.942;9.256;2024-02-23T14:16:27;13.30;99.90
435;DHT22;204;48.942;9.256;2024-02-23T14:18:53;13.30;99.90
435;DHT22;204;48.942;9.256;2024-02-23T14:21:18;13.20;99.90
435;DHT22;204;48.942;9.256;2024-02-23T14:23:46;13.10;99.90
435;DHT22;204;48.942;9.256;2024-02-23T14:26:12;13.10;99.90
435;DHT22;204;48.942;9.256;2024-02-23T14:28:38;13.10;99.90
435;DHT22;204;48.942;9.256;2024-02-23T14:31:04;13.00;99.90
435;DHT22;204;48.942;9.256;2024-02-23T14:33:30;13.00;99.90
435;DHT22;204;48.942;9.256;2024-02-23T14:35:55;12.90;99.90
435;DHT22;204;48.942;9.256;2024-02-23T14:38:21;12.70;99.90
435;DHT22;204;48.942;9.256;2024-02-23T14:40:47;12.70;99.90
435;DHT22;204;48.942;9.256;2024-02-23T14:43:13;12.60;99.90
435;DHT22;204;48.942;9.256;2024-02-23T14:45:38;12.70;99.90
435;DHT22;204;48.942;9.256;2024-02-23T14:48:04;12.70;99.90
435;DHT22;204;48.942;9.256;2024-02-23T14:50:30;12.70;99.90
435;DHT22;204;48.942;9.256;2024-02-23T14:52:56;12.70;99.90
435;DHT22;204;48.942;9.256;2024-02-23T14:55:22;12.50;99.90
435;DHT22;204;48.942;9.256;2024-02-23T14:57:47;12.40;99.90
435;DHT22;204;48.942;9.256;2024-02-23T15:00:13;12.40;99.90
435;DHT22;204;48.942;9.256;2024-02-23T15:02:39;12.40;99.90
435;DHT22;204;48.942;9.256;2024-02-23T15:05:07;12.40;99.90
435;DHT22;204;48.942;9.256;2024-02-23T15:07:33;12.50;99.90
435;DHT22;204;48.942;9.256;2024-02-23T15:10:00;12.50;99.90
435;DHT22;204;48.942;9.256;2024-02-23T15:12:31;12.40;99.90
435;DHT22;204;48.942;9.256;2024-02-23T15:14:56;12.40;99.90
435;DHT22;204;48.942;9.256;2024-02-23T15:17:22;12.40;99.90
435;DHT22;204;48.942;9.256;2024-02-23T15:19:47;12.40;99.90
435;DHT22;204;48.942;9.256;2024-02-23T15:22:13;12.40;99.90
435;DHT22;204;48.942;9.256;2024-02-23T15:24:40;12.40;99.90
435;DHT22;204;48.942;9.256;2024-02-23T15:27:11;12.30;99.90
435;DHT22;204;48.942;9.256;2024-02-23T15:29:36;12.10;99.90
435;DHT22;204;48.942;9.256;2024-02-23T15:32:02;12.00;99.90
435;DHT22;204;48.942;9.256;2024-02-23T15:34:28;12.00;99.90
435;DHT22;204;48.942;9.256;2024-02-23T15:36:54;11.90;99.90
435;DHT22;204;48.942;9.256;2024-02-23T15:39:19;11.80;99.90
435;DHT22;204;48.942;9.256;2024-02-23T15:41:45;11.80;99.90
435;DHT22;204;48.942;9.256;2024-02-23T15:44:11;11.70;99.90
435;DHT22;204;48.942;9.256;2024-02-23T15:46:37;11.60;99.90
435;DHT22;204;48.942;9.256;2024-02-23T15:49:02;11.60;99.90
435;DHT22;204;48.942;9.256;2024-02-23T15:51:28;11.50;99.90
435;DHT22;204;48.942;9.256;2024-02-23T15:53:59;11.50;99.90
435;DHT22;204;48.942;9.256;2024-02-23T15:56:25;11.30;99.90
435;DHT22;204;48.942;9.256;2024-02-23T15:58:50;11.40;99.90
435;DHT22;204;48.942;9.256;2024-02-23T16:01:16;11.30;99.90
435;DHT22;204;48.942;9.256;2024-02-23T16:03:41;11.30;99.90
435;DHT22;204;48.942;9.256;2024-02-23T16:06:07;11.40;99.90
435;DHT22;204;48.942;9.256;2024-02-23T16:08:46;11.40;99.90
435;DHT22;204;48.942;9.256;2024-02-23T16:11:12;11.60;99.90
435;DHT22;204;48.942;9.256;2024-02-23T16:13:39;11.70;99.90
435;DHT22;204;48.942;9.256;2024-02-23T16:16:06;11.80;99.90
435;DHT22;204;48.942;9.256;2024-02-23T16:18:32;11.80;99.90
435;DHT22;204;48.942;9.256;2024-02-23T16:20:58;11.70;99.90
435;DHT22;204;48.942;9.256;2024-02-23T16:23:27;11.70;99.90
435;DHT22;204;48.942;9.256;2024-02-23T16:25:53;11.60;99.90
435;DHT22;204;48.942;9.256;2024-02-23T16:28:19;11.40;99.90
435;DHT22;204;48.942;9.256;2024-02-23T16:30:45;11.20;99.90
435;DHT22;204;48.942;9.256;2024-02-23T16:33:10;11.00;99.90
435;DHT22;204;48.942;9.256;2024-02-23T16:35:36;10.70;99.90
435;DHT22;204;48.942;9.256;2024-02-23T16:38:02;10.60;99.90
435;DHT22;204;48.942;9.256;2024-02-23T16:40:28;10.40;99.90